Aeroporto :
LOGIN :

Iscrizione | Disclaimer

   EN    FR    IT 

 










Sommario :    VFR   VFR Marginale   IFR   IFR Intensivo   IFR Molto Intensivo
Visibilità : 
Base nubi : 
>= 8 km
>= 3000ft
5 / 8 km
1000 / 3000 ft
1500m / 5 km
500 / 1000 ft
800 / 1500m
200 / 500 ft
< 800m
< 200 ft
Simboli :   Temporali  Nebbia  Neve Forte  Precipitazioni Forti  Vento > 20 kt
SIGMETs :   Varie  Temporali  Ghiacco  Turbolenza  Onda orograficha  Ceneri Vulcaniche






- Altitudine del aeroporto : 238 ft
- Codice IATA : FAB


EGLF - Farnborough

ULTIMO METAR :
  • 221020Z 32009KT 280V350 9999 SCT017 BKN026 18/12 Q1013

METARs OBSOLETI :
  • 220950Z 31009KT 9999 SCT017 BKN026 16/12 Q1013
  • 220920Z 30012KT 9999 SCT014 BKN029 16/12 Q1012
  • 220850Z 27007KT 240V310 9999 FEW017 BKN029 17/12 Q1012
  • 220820Z 27006KT 230V300 9999 FEW016 BKN024 17/12 Q1012
  • 220750Z 25008KT 230V300 9999 FEW016 BKN024 17/12 Q1011
  • 220720Z 24011KT 9999 SCT014 BKN028 17/13 Q1011
  • 220650Z 24006KT 210V270 9999 SCT009 BKN026 16/13 Q1011
  • 220620Z AUTO 23006KT 9999 SCT007/// BKN011/// BKN026/// 15/13 Q1011
  • 220550Z AUTO 22005KT 180V240 9999 OVC006/// 15/13 Q1011
  • 220520Z AUTO 21005KT 180V240 9999 OVC006/// 14/13 Q1011 REDZ

TAF TAF EGLF
Valido dal 22 a 09 ore il 22 a 18 ore UTC


220757Z 2209/2218 25006KT 9999 SCT010 BKN025
PROB30
TEMPO 2209/2211 BKN012
PROB30
TEMPO 2209/2212 7000 SHRA
ATIS : +44 09063 800 400 (*282)



MetMap, La meteo Aeronautica in un colpo d'occhio ! - Copyright ORBIFLY Dicembre 2007 - Disclaimer

ORBIFLY MET'MAP TEAM :

Programmazione e sviluppo : Alexandra Zaïnal
Concezione : Baudouin d'Aumeries
Supporto tecnico e logistico : Manuel Goepfert
Aiuto : Marc-Olivier Méhu
Aiuto per la traduzione : Arnaldo La Scala




FONTI E CREDITI :

   NOAA